sensor_id;sensor_type;location;lat;lon;timestamp;pressure;altitude;pressure_sealevel;temperature;humidity
56992;BME280;42885;49.754;18.636;2023-02-13T00:02:28;100296.62;;;5.04;100.00
56992;BME280;42885;49.754;18.636;2023-02-13T00:04:59;100301.17;;;5.42;100.00
56992;BME280;42885;49.754;18.636;2023-02-13T00:07:30;100299.39;;;5.47;100.00
56992;BME280;42885;49.754;18.636;2023-02-13T00:10:01;100293.45;;;5.32;100.00
56992;BME280;42885;49.754;18.636;2023-02-13T00:12:33;100299.03;;;5.35;100.00
56992;BME280;42885;49.754;18.636;2023-02-13T00:15:05;100292.78;;;4.91;100.00
56992;BME280;42885;49.754;18.636;2023-02-13T00:17:36;100289.52;;;4.35;100.00
56992;BME280;42885;49.754;18.636;2023-02-13T00:20:08;100288.96;;;4.79;100.00
56992;BME280;42885;49.754;18.636;2023-02-13T00:22:40;100292.28;;;5.07;100.00
56992;BME280;42885;49.754;18.636;2023-02-13T00:25:11;100294.23;;;5.42;100.00
56992;BME280;42885;49.754;18.636;2023-02-13T00:27:42;100292.82;;;5.61;100.00
56992;BME280;42885;49.754;18.636;2023-02-13T00:30:14;100290.99;;;5.71;100.00
56992;BME280;42885;49.754;18.636;2023-02-13T00:32:45;100290.58;;;5.68;100.00
56992;BME280;42885;49.754;18.636;2023-02-13T00:35:16;100284.19;;;5.54;100.00
56992;BME280;42885;49.754;18.636;2023-02-13T00:37:47;100286.67;;;5.71;100.00
56992;BME280;42885;49.754;18.636;2023-02-13T00:40:18;100289.23;;;5.76;100.00
56992;BME280;42885;49.754;18.636;2023-02-13T00:42:49;100289.84;;;5.54;100.00
56992;BME280;42885;49.754;18.636;2023-02-13T00:45:20;100293.31;;;5.51;100.00
56992;BME280;42885;49.754;18.636;2023-02-13T00:47:51;100284.87;;;5.79;100.00
56992;BME280;42885;49.754;18.636;2023-02-13T00:50:22;100286.93;;;5.91;100.00
56992;BME280;42885;49.754;18.636;2023-02-13T00:52:53;100289.19;;;5.82;100.00
56992;BME280;42885;49.754;18.636;2023-02-13T00:55:24;100290.07;;;5.79;100.00
56992;BME280;42885;49.754;18.636;2023-02-13T00:57:55;100292.16;;;5.88;100.00
56992;BME280;42885;49.754;18.636;2023-02-13T01:00:26;100282.10;;;6.00;100.00
56992;BME280;42885;49.754;18.636;2023-02-13T01:02:58;100276.44;;;6.05;100.00
56992;BME280;42885;49.754;18.636;2023-02-13T01:05:29;100277.22;;;6.15;100.00
56992;BME280;42885;49.754;18.636;2023-02-13T01:08:00;100279.91;;;6.05;100.00
56992;BME280;42885;49.754;18.636;2023-02-13T01:10:31;100274.62;;;6.15;100.00
56992;BME280;42885;49.754;18.636;2023-02-13T01:13:02;100268.44;;;6.25;100.00
56992;BME280;42885;49.754;18.636;2023-02-13T01:15:33;100265.77;;;5.85;100.00
56992;BME280;42885;49.754;18.636;2023-02-13T01:18:04;100266.61;;;5.30;100.00
56992;BME280;42885;49.754;18.636;2023-02-13T01:20:36;100269.87;;;5.59;100.00
56992;BME280;42885;49.754;18.636;2023-02-13T01:23:07;100263.25;;;5.74;100.00
56992;BME280;42885;49.754;18.636;2023-02-13T01:25:42;100266.69;;;5.78;100.00
56992;BME280;42885;49.754;18.636;2023-02-13T01:28:13;100275.27;;;5.89;100.00
56992;BME280;42885;49.754;18.636;2023-02-13T01:30:45;100273.05;;;5.93;100.00
56992;BME280;42885;49.754;18.636;2023-02-13T01:33:17;100267.06;;;5.84;100.00
56992;BME280;42885;49.754;18.636;2023-02-13T01:35:49;100276.43;;;5.51;100.00
56992;BME280;42885;49.754;18.636;2023-02-13T01:38:20;100267.94;;;5.84;100.00
56992;BME280;42885;49.754;18.636;2023-02-13T01:40:52;100264.37;;;5.98;100.00
56992;BME280;42885;49.754;18.636;2023-02-13T01:46:00;100252.72;;;5.91;100.00
56992;BME280;42885;49.754;18.636;2023-02-13T01:48:32;100242.64;;;6.05;100.00
56992;BME280;42885;49.754;18.636;2023-02-13T01:51:08;100239.56;;;6.12;100.00
56992;BME280;42885;49.754;18.636;2023-02-13T01:53:51;100235.92;;;6.28;100.00
56992;BME280;42885;49.754;18.636;2023-02-13T01:56:31;100239.73;;;5.88;100.00
56992;BME280;42885;49.754;18.636;2023-02-13T01:58:59;100238.38;;;5.96;100.00
56992;BME280;42885;49.754;18.636;2023-02-13T02:01:31;100246.12;;;6.01;100.00
56992;BME280;42885;49.754;18.636;2023-02-13T02:04:12;100242.48;;;6.20;100.00
56992;BME280;42885;49.754;18.636;2023-02-13T02:06:45;100239.00;;;6.22;100.00
56992;BME280;42885;49.754;18.636;2023-02-13T02:09:21;100244.20;;;6.22;100.00
56992;BME280;42885;49.754;18.636;2023-02-13T02:15:04;100245.55;;;6.17;100.00
56992;BME280;42885;49.754;18.636;2023-02-13T02:17:36;100244.80;;;6.47;100.00
56992;BME280;42885;49.754;18.636;2023-02-13T02:23:00;100248.05;;;6.26;100.00
56992;BME280;42885;49.754;18.636;2023-02-13T02:28:28;100241.13;;;6.28;100.00
56992;BME280;42885;49.754;18.636;2023-02-13T02:45:07;100216.69;;;6.03;100.00
56992;BME280;42885;49.754;18.636;2023-02-13T02:47:49;100211.57;;;6.36;100.00
56992;BME280;42885;49.754;18.636;2023-02-13T02:51:42;100209.41;;;6.33;100.00
56992;BME280;42885;49.754;18.636;2023-02-13T02:53:40;100215.61;;;6.58;100.00
56992;BME280;42885;49.754;18.636;2023-02-13T02:59:08;100217.86;;;6.51;100.00
56992;BME280;42885;49.754;18.636;2023-02-13T03:01:57;100228.06;;;6.68;100.00
56992;BME280;42885;49.754;18.636;2023-02-13T03:04:52;100231.63;;;6.59;100.00
56992;BME280;42885;49.754;18.636;2023-02-13T03:07:43;100227.70;;;6.26;100.00
56992;BME280;42885;49.754;18.636;2023-02-13T03:10:19;100229.79;;;6.32;100.00
56992;BME280;42885;49.754;18.636;2023-02-13T03:13:14;100234.09;;;6.37;100.00
56992;BME280;42885;49.754;18.636;2023-02-13T03:15:52;100238.94;;;6.29;100.00
56992;BME280;42885;49.754;18.636;2023-02-13T03:18:44;100238.33;;;6.04;100.00
56992;BME280;42885;49.754;18.636;2023-02-13T03:21:53;100226.10;;;6.14;100.00
56992;BME280;42885;49.754;18.636;2023-02-13T03:24:46;100231.08;;;6.34;100.00
56992;BME280;42885;49.754;18.636;2023-02-13T03:36:02;100244.56;;;6.30;100.00
56992;BME280;42885;49.754;18.636;2023-02-13T03:39:00;100245.80;;;6.37;100.00
56992;BME280;42885;49.754;18.636;2023-02-13T03:41:39;100251.31;;;6.45;100.00
56992;BME280;42885;49.754;18.636;2023-02-13T03:46:45;100236.83;;;6.59;100.00
56992;BME280;42885;49.754;18.636;2023-02-13T03:49:23;100234.50;;;6.39;100.00
56992;BME280;42885;49.754;18.636;2023-02-13T03:52:59;100229.27;;;6.41;100.00
56992;BME280;42885;49.754;18.636;2023-02-13T03:54:57;100230.61;;;6.38;100.00
56992;BME280;42885;49.754;18.636;2023-02-13T03:57:47;100234.81;;;6.50;100.00
56992;BME280;42885;49.754;18.636;2023-02-13T04:00:47;100233.40;;;6.57;100.00
56992;BME280;42885;49.754;18.636;2023-02-13T04:03:44;100227.72;;;6.61;100.00
56992;BME280;42885;49.754;18.636;2023-02-13T04:06:19;100232.98;;;6.56;100.00
56992;BME280;42885;49.754;18.636;2023-02-13T04:08:52;100234.88;;;6.43;100.00
56992;BME280;42885;49.754;18.636;2023-02-13T04:11:36;100229.89;;;6.61;100.00
56992;BME280;42885;49.754;18.636;2023-02-13T04:14:14;100229.89;;;6.61;100.00
56992;BME280;42885;49.754;18.636;2023-02-13T04:16:48;100230.56;;;6.41;100.00
56992;BME280;42885;49.754;18.636;2023-02-13T04:19:20;100232.09;;;6.57;100.00
56992;BME280;42885;49.754;18.636;2023-02-13T04:21:59;100236.98;;;6.49;100.00
56992;BME280;42885;49.754;18.636;2023-02-13T04:24:31;100236.02;;;6.19;100.00
56992;BME280;42885;49.754;18.636;2023-02-13T04:27:04;100239.65;;;6.44;100.00
56992;BME280;42885;49.754;18.636;2023-02-13T04:29:34;100240.60;;;6.35;100.00
56992;BME280;42885;49.754;18.636;2023-02-13T04:32:05;100239.16;;;6.83;100.00
56992;BME280;42885;49.754;18.636;2023-02-13T04:34:37;100237.13;;;6.34;100.00
56992;BME280;42885;49.754;18.636;2023-02-13T04:37:08;100241.48;;;6.36;100.00
56992;BME280;42885;49.754;18.636;2023-02-13T04:39:39;100237.88;;;6.46;100.00
56992;BME280;42885;49.754;18.636;2023-02-13T04:42:10;100240.31;;;6.60;100.00
56992;BME280;42885;49.754;18.636;2023-02-13T04:44:41;100245.33;;;6.39;100.00
56992;BME280;42885;49.754;18.636;2023-02-13T04:47:12;100240.76;;;6.21;100.00
56992;BME280;42885;49.754;18.636;2023-02-13T04:49:44;100244.39;;;6.44;100.00
56992;BME280;42885;49.754;18.636;2023-02-13T04:52:15;100242.62;;;6.46;100.00
56992;BME280;42885;49.754;18.636;2023-02-13T04:54:46;100250.89;;;6.44;100.00
56992;BME280;42885;49.754;18.636;2023-02-13T04:57:17;100245.16;;;6.54;100.00
56992;BME280;42885;49.754;18.636;2023-02-13T04:59:48;100244.68;;;6.58;100.00
56992;BME280;42885;49.754;18.636;2023-02-13T05:02:19;100252.60;;;6.49;100.00
56992;BME280;42885;49.754;18.636;2023-02-13T05:04:50;100256.38;;;6.18;100.00
56992;BME280;42885;49.754;18.636;2023-02-13T05:07:21;100252.00;;;6.22;100.00
56992;BME280;42885;49.754;18.636;2023-02-13T05:09:52;100246.48;;;6.13;100.00
56992;BME280;42885;49.754;18.636;2023-02-13T05:12:23;100243.87;;;6.14;100.00
56992;BME280;42885;49.754;18.636;2023-02-13T05:14:54;100244.34;;;6.09;100.00
56992;BME280;42885;49.754;18.636;2023-02-13T05:17:25;100237.52;;;6.40;100.00
56992;BME280;42885;49.754;18.636;2023-02-13T05:19:56;100232.55;;;6.57;100.00
56992;BME280;42885;49.754;18.636;2023-02-13T05:22:27;100236.47;;;6.55;100.00
56992;BME280;42885;49.754;18.636;2023-02-13T05:25:17;100233.57;;;6.43;100.00
56992;BME280;42885;49.754;18.636;2023-02-13T05:27:48;100233.09;;;6.49;100.00
56992;BME280;42885;49.754;18.636;2023-02-13T05:30:19;100237.10;;;6.39;100.00
56992;BME280;42885;49.754;18.636;2023-02-13T05:32:50;100240.73;;;6.59;100.00
56992;BME280;42885;49.754;18.636;2023-02-13T05:35:21;100237.64;;;6.66;100.00
56992;BME280;42885;49.754;18.636;2023-02-13T05:37:53;100242.25;;;6.78;100.00
56992;BME280;42885;49.754;18.636;2023-02-13T05:40:24;100239.57;;;7.16;100.00
56992;BME280;42885;49.754;18.636;2023-02-13T05:42:56;100237.25;;;7.25;100.00
56992;BME280;42885;49.754;18.636;2023-02-13T05:45:27;100239.42;;;7.27;100.00
56992;BME280;42885;49.754;18.636;2023-02-13T05:47:58;100245.55;;;7.21;100.00
56992;BME280;42885;49.754;18.636;2023-02-13T05:50:29;100246.17;;;7.08;100.00
56992;BME280;42885;49.754;18.636;2023-02-13T05:53:00;100244.86;;;7.10;100.00
56992;BME280;42885;49.754;18.636;2023-02-13T05:55:31;100236.16;;;6.80;100.00
56992;BME280;42885;49.754;18.636;2023-02-13T05:58:03;100229.46;;;6.93;100.00
56992;BME280;42885;49.754;18.636;2023-02-13T06:00:35;100232.93;;;6.95;100.00
56992;BME280;42885;49.754;18.636;2023-02-13T06:03:06;100224.65;;;6.97;100.00
56992;BME280;42885;49.754;18.636;2023-02-13T06:05:37;100230.45;;;6.85;100.00
56992;BME280;42885;49.754;18.636;2023-02-13T06:08:08;100231.97;;;7.02;100.00
56992;BME280;42885;49.754;18.636;2023-02-13T06:10:39;100232.27;;;7.09;100.00
56992;BME280;42885;49.754;18.636;2023-02-13T06:13:10;100229.11;;;7.18;100.00
56992;BME280;42885;49.754;18.636;2023-02-13T06:15:41;100229.50;;;7.22;100.00
56992;BME280;42885;49.754;18.636;2023-02-13T06:18:12;100228.86;;;7.36;100.00
56992;BME280;42885;49.754;18.636;2023-02-13T06:20:43;100230.00;;;7.16;100.00
56992;BME280;42885;49.754;18.636;2023-02-13T06:23:14;100234.44;;;7.11;100.00
56992;BME280;42885;49.754;18.636;2023-02-13T06:25:46;100236.25;;;7.35;100.00
56992;BME280;42885;49.754;18.636;2023-02-13T06:28:17;100233.02;;;7.47;100.00
56992;BME280;42885;49.754;18.636;2023-02-13T06:30:48;100242.22;;;7.42;100.00
56992;BME280;42885;49.754;18.636;2023-02-13T06:33:19;100237.25;;;7.54;100.00
56992;BME280;42885;49.754;18.636;2023-02-13T06:35:50;100239.23;;;7.38;100.00
56992;BME280;42885;49.754;18.636;2023-02-13T06:38:21;100235.48;;;7.54;100.00
56992;BME280;42885;49.754;18.636;2023-02-13T06:40:57;100234.25;;;7.51;100.00
56992;BME280;42885;49.754;18.636;2023-02-13T06:43:25;100233.07;;;6.84;100.00
56992;BME280;42885;49.754;18.636;2023-02-13T06:45:56;100238.35;;;6.78;100.00
56992;BME280;42885;49.754;18.636;2023-02-13T06:48:27;100231.58;;;6.98;100.00
56992;BME280;42885;49.754;18.636;2023-02-13T06:50:58;100240.07;;;7.11;100.00
56992;BME280;42885;49.754;18.636;2023-02-13T06:53:30;100238.00;;;7.04;100.00
56992;BME280;42885;49.754;18.636;2023-02-13T06:56:03;100237.45;;;6.82;100.00
56992;BME280;42885;49.754;18.636;2023-02-13T06:58:37;100234.72;;;6.89;100.00
56992;BME280;42885;49.754;18.636;2023-02-13T07:01:08;100232.53;;;6.92;100.00
56992;BME280;42885;49.754;18.636;2023-02-13T07:03:39;100230.27;;;6.99;100.00
56992;BME280;42885;49.754;18.636;2023-02-13T07:06:15;100222.45;;;7.28;100.00
56992;BME280;42885;49.754;18.636;2023-02-13T07:08:42;100227.81;;;6.87;100.00
56992;BME280;42885;49.754;18.636;2023-02-13T07:11:17;100221.64;;;7.52;100.00
56992;BME280;42885;49.754;18.636;2023-02-13T07:13:48;100219.83;;;7.82;100.00
56992;BME280;42885;49.754;18.636;2023-02-13T07:16:19;100227.69;;;8.05;100.00
56992;BME280;42885;49.754;18.636;2023-02-13T07:18:50;100222.29;;;7.65;100.00
56992;BME280;42885;49.754;18.636;2023-02-13T07:21:21;100230.02;;;7.71;100.00
56992;BME280;42885;49.754;18.636;2023-02-13T07:23:52;100241.83;;;7.10;100.00
56992;BME280;42885;49.754;18.636;2023-02-13T07:26:23;100239.52;;;6.88;100.00
56992;BME280;42885;49.754;18.636;2023-02-13T07:28:55;100239.72;;;7.05;100.00
56992;BME280;42885;49.754;18.636;2023-02-13T07:31:26;100244.03;;;7.64;100.00
56992;BME280;42885;49.754;18.636;2023-02-13T07:33:57;100243.21;;;7.87;100.00
56992;BME280;42885;49.754;18.636;2023-02-13T07:36:28;100245.88;;;7.57;100.00
56992;BME280;42885;49.754;18.636;2023-02-13T07:38:59;100244.42;;;7.67;100.00
56992;BME280;42885;49.754;18.636;2023-02-13T07:41:30;100242.05;;;7.79;100.00
56992;BME280;42885;49.754;18.636;2023-02-13T07:44:01;100241.64;;;7.78;100.00
56992;BME280;42885;49.754;18.636;2023-02-13T07:46:32;100237.25;;;7.80;100.00
56992;BME280;42885;49.754;18.636;2023-02-13T07:49:03;100233.66;;;7.87;100.00
56992;BME280;42885;49.754;18.636;2023-02-13T07:51:34;100238.16;;;8.26;100.00
56992;BME280;42885;49.754;18.636;2023-02-13T07:54:05;100232.84;;;8.31;100.00
56992;BME280;42885;49.754;18.636;2023-02-13T07:56:36;100234.67;;;8.48;100.00
56992;BME280;42885;49.754;18.636;2023-02-13T07:59:07;100239.09;;;8.89;100.00
56992;BME280;42885;49.754;18.636;2023-02-13T08:01:38;100246.52;;;9.07;100.00
56992;BME280;42885;49.754;18.636;2023-02-13T08:04:09;100246.23;;;9.00;100.00
56992;BME280;42885;49.754;18.636;2023-02-13T08:06:40;100240.00;;;8.66;100.00
56992;BME280;42885;49.754;18.636;2023-02-13T08:09:16;100235.41;;;8.11;100.00
56992;BME280;42885;49.754;18.636;2023-02-13T08:12:06;100235.41;;;8.11;100.00
56992;BME280;42885;49.754;18.636;2023-02-13T08:14:37;100227.08;;;8.15;100.00
56992;BME280;42885;49.754;18.636;2023-02-13T08:17:09;100235.41;;;8.57;100.00
56992;BME280;42885;49.754;18.636;2023-02-13T08:19:40;100235.49;;;8.50;100.00
56992;BME280;42885;49.754;18.636;2023-02-13T08:22:11;100232.48;;;8.72;100.00
56992;BME280;42885;49.754;18.636;2023-02-13T08:24:42;100228.75;;;8.84;100.00
56992;BME280;42885;49.754;18.636;2023-02-13T08:27:13;100235.73;;;9.03;100.00
56992;BME280;42885;49.754;18.636;2023-02-13T08:29:45;100235.73;;;9.03;100.00
56992;BME280;42885;49.754;18.636;2023-02-13T08:32:16;100239.16;;;9.05;100.00
56992;BME280;42885;49.754;18.636;2023-02-13T08:34:47;100240.04;;;9.06;100.00
56992;BME280;42885;49.754;18.636;2023-02-13T08:37:18;100229.65;;;9.22;100.00
56992;BME280;42885;49.754;18.636;2023-02-13T08:39:49;100232.78;;;9.19;100.00
56992;BME280;42885;49.754;18.636;2023-02-13T08:42:20;100228.02;;;9.17;100.00
56992;BME280;42885;49.754;18.636;2023-02-13T08:44:51;100227.98;;;9.38;100.00
56992;BME280;42885;49.754;18.636;2023-02-13T08:47:22;100225.19;;;9.81;100.00
56992;BME280;42885;49.754;18.636;2023-02-13T08:49:53;100223.80;;;9.66;100.00
56992;BME280;42885;49.754;18.636;2023-02-13T08:52:24;100229.41;;;9.68;100.00
56992;BME280;42885;49.754;18.636;2023-02-13T08:54:55;100231.97;;;9.71;100.00
56992;BME280;42885;49.754;18.636;2023-02-13T08:57:26;100227.59;;;10.22;100.00
56992;BME280;42885;49.754;18.636;2023-02-13T08:59:57;100228.05;;;9.88;100.00
56992;BME280;42885;49.754;18.636;2023-02-13T09:02:29;100233.97;;;9.78;100.00
56992;BME280;42885;49.754;18.636;2023-02-13T09:05:00;100237.65;;;9.34;100.00
56992;BME280;42885;49.754;18.636;2023-02-13T09:07:31;100233.19;;;9.56;100.00
56992;BME280;42885;49.754;18.636;2023-02-13T09:10:02;100231.36;;;9.60;100.00
56992;BME280;42885;49.754;18.636;2023-02-13T09:12:33;100230.11;;;10.08;100.00
56992;BME280;42885;49.754;18.636;2023-02-13T09:15:04;100219.45;;;10.16;100.00
56992;BME280;42885;49.754;18.636;2023-02-13T09:17:35;100225.98;;;10.32;100.00
56992;BME280;42885;49.754;18.636;2023-02-13T09:20:07;100229.11;;;10.62;100.00
56992;BME280;42885;49.754;18.636;2023-02-13T09:22:39;100228.88;;;10.85;100.00
56992;BME280;42885;49.754;18.636;2023-02-13T09:25:10;100228.05;;;11.26;98.03
56992;BME280;42885;49.754;18.636;2023-02-13T09:27:41;100226.94;;;11.47;95.58
56992;BME280;42885;49.754;18.636;2023-02-13T09:30:12;100227.53;;;10.56;96.93
56992;BME280;42885;49.754;18.636;2023-02-13T09:32:49;100224.27;;;10.63;100.00
56992;BME280;42885;49.754;18.636;2023-02-13T09:35:21;100223.56;;;10.73;98.87
56992;BME280;42885;49.754;18.636;2023-02-13T09:37:53;100219.64;;;10.86;95.00
56992;BME280;42885;49.754;18.636;2023-02-13T09:40:30;100213.77;;;10.65;96.00
56992;BME280;42885;49.754;18.636;2023-02-13T09:43:13;100212.23;;;10.42;100.00
56992;BME280;42885;49.754;18.636;2023-02-13T09:45:46;100218.88;;;10.38;100.00
56992;BME280;42885;49.754;18.636;2023-02-13T09:48:23;100221.16;;;10.33;100.00
56992;BME280;42885;49.754;18.636;2023-02-13T09:50:52;100214.23;;;10.16;100.00
56992;BME280;42885;49.754;18.636;2023-02-13T09:53:24;100214.94;;;10.69;100.00
56992;BME280;42885;49.754;18.636;2023-02-13T09:56:06;100218.41;;;10.85;97.87
56992;BME280;42885;49.754;18.636;2023-02-13T09:58:47;100217.46;;;10.87;98.03
56992;BME280;42885;49.754;18.636;2023-02-13T10:01:31;100216.05;;;10.45;99.95
56992;BME280;42885;49.754;18.636;2023-02-13T10:04:11;100221.14;;;10.18;100.00
56992;BME280;42885;49.754;18.636;2023-02-13T10:06:44;100225.72;;;10.43;100.00
56992;BME280;42885;49.754;18.636;2023-02-13T10:09:48;100223.16;;;10.72;98.48
56992;BME280;42885;49.754;18.636;2023-02-13T10:12:24;100216.80;;;10.51;98.33
56992;BME280;42885;49.754;18.636;2023-02-13T10:15:11;100212.21;;;10.72;98.49
56992;BME280;42885;49.754;18.636;2023-02-13T10:17:42;100215.28;;;9.75;100.00
56992;BME280;42885;49.754;18.636;2023-02-13T10:20:30;100218.30;;;10.26;100.00
56992;BME280;42885;49.754;18.636;2023-02-13T10:25:55;100208.50;;;10.50;100.00
56992;BME280;42885;49.754;18.636;2023-02-13T10:28:37;100207.42;;;10.87;99.19
56992;BME280;42885;49.754;18.636;2023-02-13T10:31:13;100208.89;;;10.19;100.00
56992;BME280;42885;49.754;18.636;2023-02-13T10:33:57;100216.56;;;9.77;100.00
56992;BME280;42885;49.754;18.636;2023-02-13T10:36:30;100216.32;;;10.03;100.00
56992;BME280;42885;49.754;18.636;2023-02-13T10:44:35;100215.22;;;9.24;100.00
56992;BME280;42885;49.754;18.636;2023-02-13T10:52:46;100206.37;;;9.66;100.00
56992;BME280;42885;49.754;18.636;2023-02-13T10:58:29;100194.13;;;9.85;100.00
56992;BME280;42885;49.754;18.636;2023-02-13T11:01:22;100191.45;;;10.19;100.00
56992;BME280;42885;49.754;18.636;2023-02-13T11:04:03;100190.59;;;10.02;100.00
56992;BME280;42885;49.754;18.636;2023-02-13T11:06:34;100188.69;;;10.09;100.00
56992;BME280;42885;49.754;18.636;2023-02-13T11:09:06;100184.90;;;10.04;100.00
56992;BME280;42885;49.754;18.636;2023-02-13T11:11:40;100185.98;;;10.12;100.00
56992;BME280;42885;49.754;18.636;2023-02-13T11:14:22;100182.83;;;10.31;100.00
56992;BME280;42885;49.754;18.636;2023-02-13T11:16:55;100180.59;;;10.33;100.00
56992;BME280;42885;49.754;18.636;2023-02-13T11:19:47;100180.98;;;10.19;100.00
56992;BME280;42885;49.754;18.636;2023-02-13T11:22:32;100185.84;;;9.85;100.00
56992;BME280;42885;49.754;18.636;2023-02-13T11:25:25;100180.63;;;10.32;100.00
56992;BME280;42885;49.754;18.636;2023-02-13T11:27:53;100175.16;;;9.76;100.00
56992;BME280;42885;49.754;18.636;2023-02-13T11:30:29;100170.40;;;9.93;100.00
56992;BME280;42885;49.754;18.636;2023-02-13T11:33:20;100169.92;;;10.25;100.00
56992;BME280;42885;49.754;18.636;2023-02-13T11:36:05;100165.83;;;10.31;100.00
56992;BME280;42885;49.754;18.636;2023-02-13T11:38:24;100165.64;;;10.54;100.00
56992;BME280;42885;49.754;18.636;2023-02-13T11:43:45;100166.86;;;10.40;100.00
56992;BME280;42885;49.754;18.636;2023-02-13T11:46:21;100161.38;;;9.88;100.00
56992;BME280;42885;49.754;18.636;2023-02-13T11:49:04;100163.53;;;10.52;100.00
56992;BME280;42885;49.754;18.636;2023-02-13T11:51:49;100165.26;;;10.81;100.00
56992;BME280;42885;49.754;18.636;2023-02-13T11:54:40;100148.86;;;11.17;100.00
56992;BME280;42885;49.754;18.636;2023-02-13T11:57:33;100146.46;;;10.37;100.00
56992;BME280;42885;49.754;18.636;2023-02-13T12:00:29;100137.23;;;10.40;100.00
56992;BME280;42885;49.754;18.636;2023-02-13T12:08:46;100119.04;;;12.67;94.88
56992;BME280;42885;49.754;18.636;2023-02-13T12:11:38;100128.82;;;11.41;100.00
56992;BME280;42885;49.754;18.636;2023-02-13T12:14:17;100128.00;;;11.13;100.00
56992;BME280;42885;49.754;18.636;2023-02-13T12:16:55;100117.78;;;10.92;100.00
56992;BME280;42885;49.754;18.636;2023-02-13T12:19:29;100116.36;;;10.95;100.00
56992;BME280;42885;49.754;18.636;2023-02-13T12:27:54;100115.17;;;10.77;100.00
56992;BME280;42885;49.754;18.636;2023-02-13T12:33:37;100111.77;;;9.52;100.00
56992;BME280;42885;49.754;18.636;2023-02-13T12:36:22;100116.83;;;9.74;100.00
56992;BME280;42885;49.754;18.636;2023-02-13T12:42:19;100112.76;;;9.47;100.00
56992;BME280;42885;49.754;18.636;2023-02-13T12:50:35;100114.31;;;9.71;100.00
56992;BME280;42885;49.754;18.636;2023-02-13T12:53:22;100113.69;;;9.45;100.00
56992;BME280;42885;49.754;18.636;2023-02-13T12:56:22;100124.91;;;8.77;100.00
56992;BME280;42885;49.754;18.636;2023-02-13T13:07:22;100121.34;;;9.00;100.00
56992;BME280;42885;49.754;18.636;2023-02-13T13:12:57;100126.89;;;9.57;100.00
56992;BME280;42885;49.754;18.636;2023-02-13T13:15:44;100130.26;;;9.94;100.00
56992;BME280;42885;49.754;18.636;2023-02-13T13:27:10;100121.38;;;10.14;100.00
56992;BME280;42885;49.754;18.636;2023-02-13T13:29:44;100119.42;;;10.53;100.00
56992;BME280;42885;49.754;18.636;2023-02-13T13:32:18;100125.30;;;9.99;100.00
56992;BME280;42885;49.754;18.636;2023-02-13T13:34:51;100123.22;;;9.96;100.00
56992;BME280;42885;49.754;18.636;2023-02-13T13:37:29;100117.01;;;9.83;100.00
56992;BME280;42885;49.754;18.636;2023-02-13T13:43:06;100123.63;;;10.43;100.00
56992;BME280;42885;49.754;18.636;2023-02-13T13:48:58;100124.52;;;10.57;100.00
56992;BME280;42885;49.754;18.636;2023-02-13T13:51:30;100131.22;;;10.66;100.00
56992;BME280;42885;49.754;18.636;2023-02-13T13:54:32;100130.56;;;10.59;100.00
56992;BME280;42885;49.754;18.636;2023-02-13T13:57:03;100130.19;;;10.57;100.00
56992;BME280;42885;49.754;18.636;2023-02-13T14:05:01;100129.53;;;10.50;100.00
56992;BME280;42885;49.754;18.636;2023-02-13T14:07:35;100128.48;;;10.26;100.00
56992;BME280;42885;49.754;18.636;2023-02-13T14:12:59;100125.67;;;10.02;100.00
56992;BME280;42885;49.754;18.636;2023-02-13T14:20:50;100122.43;;;9.77;100.00
56992;BME280;42885;49.754;18.636;2023-02-13T14:23:27;100116.98;;;10.00;100.00
56992;BME280;42885;49.754;18.636;2023-02-13T14:31:52;100123.96;;;10.01;100.00
56992;BME280;42885;49.754;18.636;2023-02-13T14:34:21;100129.33;;;10.26;100.00
56992;BME280;42885;49.754;18.636;2023-02-13T14:40:26;100121.44;;;10.28;100.00
56992;BME280;42885;49.754;18.636;2023-02-13T14:45:50;100111.55;;;10.23;100.00
56992;BME280;42885;49.754;18.636;2023-02-13T14:48:55;100111.92;;;10.10;100.00
56992;BME280;42885;49.754;18.636;2023-02-13T14:51:44;100113.86;;;10.18;100.00
56992;BME280;42885;49.754;18.636;2023-02-13T14:54:23;100116.97;;;10.31;100.00
56992;BME280;42885;49.754;18.636;2023-02-13T14:57:04;100113.67;;;10.40;100.00
56992;BME280;42885;49.754;18.636;2023-02-13T14:59:34;100113.36;;;10.21;100.00
56992;BME280;42885;49.754;18.636;2023-02-13T15:05:11;100110.05;;;9.99;100.00
56992;BME280;42885;49.754;18.636;2023-02-13T15:07:22;100107.76;;;10.18;100.00
56992;BME280;42885;49.754;18.636;2023-02-13T15:10:00;100114.75;;;9.54;100.00
56992;BME280;42885;49.754;18.636;2023-02-13T15:12:32;100104.58;;;9.60;100.00
56992;BME280;42885;49.754;18.636;2023-02-13T15:15:26;100106.66;;;9.47;100.00
56992;BME280;42885;49.754;18.636;2023-02-13T15:17:41;100104.02;;;9.48;100.00
56992;BME280;42885;49.754;18.636;2023-02-13T15:22:46;100102.82;;;9.77;100.00
56992;BME280;42885;49.754;18.636;2023-02-13T15:25:31;100104.77;;;9.85;100.00
56992;BME280;42885;49.754;18.636;2023-02-13T15:27:58;100103.77;;;9.58;100.00
56992;BME280;42885;49.754;18.636;2023-02-13T15:30:36;100103.89;;;9.53;100.00
56992;BME280;42885;49.754;18.636;2023-02-13T15:33:17;100108.30;;;9.34;100.00
56992;BME280;42885;49.754;18.636;2023-02-13T15:36:03;100107.19;;;9.43;100.00
56992;BME280;42885;49.754;18.636;2023-02-13T15:38:35;100100.61;;;9.28;100.00
56992;BME280;42885;49.754;18.636;2023-02-13T15:41:23;100097.07;;;9.31;100.00